Time;durP1;ratioP1;P1;durP2;ratioP2;P2;SDS_P1;SDS_P2;PMS_P1;PMS_P2;Temp;Humidity;BMP_temperature;BMP_pressure;BME280_temperature;BME280_humidity;BME280_pressure;Samples;Min_cycle;Max_cycle;Signal;HPM_P1;HPM_P2
2022/05/09 00:01:45;;;;;;;7.97;2.17;;;;;;;9.00;100.00;99772.06;4389786;32;20046;-78
2022/05/09 00:04:12;;;;;;;5.07;2.08;;;;;;;9.42;100.00;99860.94;4390998;32;20042;-79
2022/05/09 00:06:38;;;;;;;4.12;2.35;;;;;;;9.09;100.00;99813.72;4391272;32;20330;-79
2022/05/09 00:09:05;;;;;;;7.10;1.80;;;;;;;9.03;100.00;99809.22;4383954;32;20059;-79
2022/05/09 00:11:32;;;;;;;10.70;2.20;;;;;;;9.35;100.00;99854.81;4390531;32;20166;-80
2022/05/09 00:13:59;;;;;;;7.80;2.55;;;;;;;9.03;100.00;99824.50;4390314;32;20061;-80
2022/05/09 00:16:28;;;;;;;6.75;2.10;;;;;;;9.06;100.00;99822.22;4389315;32;20039;-80
2022/05/09 00:18:54;;;;;;;3.87;2.20;;;;;;;9.20;100.00;99867.78;4389080;32;20182;-80
2022/05/09 00:21:20;;;;;;;13.48;2.78;;;;;;;9.07;100.00;99858.78;4390899;32;20076;-80
2022/05/09 00:23:47;;;;;;;9.73;1.95;;;;;;;9.14;100.00;99872.16;4377353;32;20068;-80
2022/05/09 00:26:17;;;;;;;7.07;2.37;;;;;;;8.91;100.00;99844.03;4389365;32;20379;-80
2022/05/09 00:28:43;;;;;;;4.32;2.10;;;;;;;8.95;100.00;99857.00;4389389;32;20395;-79
2022/05/09 00:31:10;;;;;;;7.50;1.87;;;;;;;8.96;100.00;99875.59;4377119;32;20452;-78
2022/05/09 00:33:46;;;;;;;9.68;2.47;;;;;;;8.91;100.00;99873.56;4376312;32;20035;-77
2022/05/09 00:36:15;;;;;;;8.93;2.15;;;;;;;8.75;100.00;99838.38;4375978;32;20061;-77
2022/05/09 00:38:43;;;;;;;3.30;2.00;;;;;;;8.58;100.00;99832.72;4389141;32;20030;-78
2022/05/09 00:41:31;;;;;;;8.43;2.40;;;;;;;8.34;100.00;99811.78;4375932;32;20053;-77
2022/05/09 00:44:01;;;;;;;6.53;2.33;;;;;;;8.54;100.00;99838.50;4390235;32;20037;-78
2022/05/09 00:46:28;;;;;;;7.35;1.98;;;;;;;8.77;100.00;99880.06;4388924;32;20429;-77
2022/05/09 00:49:04;;;;;;;10.18;2.05;;;;;;;8.66;100.00;99884.28;4375872;32;20076;-77
2022/05/09 00:51:33;;;;;;;6.05;2.40;;;;;;;8.47;100.00;99842.28;4376777;32;20082;-79
2022/05/09 00:54:02;;;;;;;6.18;2.40;;;;;;;8.62;100.00;99887.63;4375851;32;20049;-79
2022/05/09 00:56:35;;;;;;;9.13;2.42;;;;;;;8.60;100.00;99885.16;4377299;32;20035;-80
2022/05/09 00:59:09;;;;;;;9.07;2.40;;;;;;;8.52;100.00;99888.91;4390787;32;20024;-80
2022/05/09 01:01:37;;;;;;;2.58;1.60;;;;;;;8.46;100.00;99888.94;4390039;32;20023;-80
2022/05/09 01:04:15;;;;;;;8.77;2.22;;;;;;;8.36;100.00;99876.78;4389746;32;20060;-79
2022/05/09 01:06:41;;;;;;;3.22;1.83;;;;;;;8.46;100.00;99881.72;4389693;32;20035;-79
2022/05/09 01:09:10;;;;;;;11.00;2.33;;;;;;;8.08;100.00;99852.16;4377638;32;20027;-79
2022/05/09 01:11:38;;;;;;;12.52;2.67;;;;;;;8.29;100.00;99889.41;4392013;32;20039;-79
2022/05/09 01:14:13;;;;;;;6.85;2.10;;;;;;;8.31;100.00;99887.34;4392942;32;20104;-79
2022/05/09 01:16:40;;;;;;;10.68;2.78;;;;;;;8.27;100.00;99885.28;4379392;32;20053;-79
2022/05/09 01:19:33;;;;;;;5.37;2.70;;;;;;;7.86;100.00;99833.66;4378838;32;20117;-79
2022/05/09 01:22:01;;;;;;;12.15;2.37;;;;;;;8.23;100.00;99884.88;4379705;32;20053;-79
2022/05/09 01:24:29;;;;;;;6.12;2.15;;;;;;;8.15;100.00;99898.53;4393066;32;20057;-79
2022/05/09 01:26:56;;;;;;;10.43;2.70;;;;;;;7.86;100.00;99852.44;4393157;32;20436;-79
2022/05/09 01:29:29;;;;;;;9.93;2.20;;;;;;;8.08;100.00;99892.38;4392366;32;20035;-79
2022/05/09 01:31:56;;;;;;;;;;;;;;;8.04;100.00;99901.87;4378299;32;20045;-77
2022/05/09 01:34:22;;;;;;;3.50;2.33;;;;;;;8.09;100.00;99888.66;4391525;32;20354;-78
2022/05/09 01:36:56;;;;;;;4.90;2.15;;;;;;;7.90;100.00;99887.72;4391671;32;20039;-77
2022/05/09 01:39:24;;;;;;;5.55;2.58;;;;;;;7.88;100.00;99895.97;4391566;32;20045;-79
2022/05/09 01:41:52;;;;;;;11.77;4.82;;;;;;;7.18;100.00;99789.34;4392277;32;20339;-79
2022/05/09 01:44:20;;;;;;;5.20;2.92;;;;;;;7.67;100.00;99858.69;4392883;32;20061;-80
2022/05/09 01:49:34;;;;;;;6.53;2.78;;;;;;;7.41;100.00;99825.56;4392078;32;20015;-78
2022/05/09 01:52:07;;;;;;;10.32;3.95;;;;;;;7.56;100.00;99846.75;4392781;32;20065;-79
2022/05/09 01:54:35;;;;;;;3.90;2.35;;;;;;;7.84;100.00;99894.72;4392949;32;20485;-79
2022/05/09 01:57:02;;;;;;;5.90;2.80;;;;;;;7.71;100.00;99898.25;4392741;32;20043;-78
2022/05/09 01:59:29;;;;;;;13.68;3.75;;;;;;;7.81;100.00;99897.81;4379121;32;20166;-78
2022/05/09 02:02:00;;;;;;;10.18;4.72;;;;;;;7.06;100.00;99799.03;4391770;32;20065;-77
2022/05/09 02:04:27;;;;;;;13.60;3.27;;;;;;;7.71;100.00;99892.09;4391539;32;20049;-77
2022/05/09 02:06:55;;;;;;;5.57;3.25;;;;;;;7.56;100.00;99885.09;4377420;32;20411;-77
2022/05/09 02:09:21;;;;;;;11.45;3.35;;;;;;;7.56;100.00;99890.47;4392622;32;20461;-78
2022/05/09 02:11:47;;;;;;;7.25;2.83;;;;;;;7.56;100.00;99895.81;4378426;32;20027;-78
2022/05/09 02:14:14;;;;;;;7.32;2.90;;;;;;;7.44;100.00;99884.91;4392842;32;20116;-79
2022/05/09 02:16:41;;;;;;;7.43;3.35;;;;;;;7.54;100.00;99897.06;4377513;32;20038;-80
2022/05/09 02:19:07;;;;;;;13.45;4.00;;;;;;;7.40;100.00;99883.69;4391651;32;20064;-80
2022/05/09 02:21:34;;;;;;;9.20;2.80;;;;;;;7.23;100.00;99864.53;4378259;32;20074;-80
2022/05/09 02:24:02;;;;;;;5.78;2.37;;;;;;;7.45;100.00;99909.84;4378088;32;20056;-80
2022/05/09 02:26:29;;;;;;;10.45;2.92;;;;;;;7.43;100.00;99902.00;4392263;32;20038;-80
2022/05/09 02:28:55;;;;;;;11.45;3.10;;;;;;;7.37;100.00;99904.69;4392286;32;20073;-80
2022/05/09 02:31:23;;;;;;;7.37;2.65;;;;;;;7.27;100.00;99887.19;4392278;32;20046;-80
2022/05/09 02:33:50;;;;;;;6.47;2.55;;;;;;;7.32;100.00;99896.47;4391604;32;20031;-79
2022/05/09 02:36:17;;;;;;;5.18;1.98;;;;;;;7.26;100.00;99909.66;4391294;32;20042;-80
2022/05/09 02:38:44;;;;;;;7.25;2.58;;;;;;;7.22;100.00;99910.28;4377011;32;20100;-79
2022/05/09 02:41:10;;;;;;;4.95;2.42;;;;;;;7.20;100.00;99913.16;4378144;32;20052;-80
2022/05/09 02:43:36;;;;;;;11.60;4.28;;;;;;;6.90;100.00;99865.34;4402828;32;20107;-79
2022/05/09 02:46:04;;;;;;;10.63;3.87;;;;;;;6.72;100.00;99827.66;4407061;32;20059;-76
2022/05/09 02:48:32;;;;;;;6.85;3.22;;;;;;;6.72;100.00;99835.69;4404124;32;20094;-76
2022/05/09 02:50:59;;;;;;;6.87;3.08;;;;;;;7.21;100.00;99897.91;4404853;32;20087;-76
2022/05/09 02:53:25;;;;;;;7.05;2.72;;;;;;;7.19;100.00;99906.12;4391885;32;20075;-77
2022/05/09 02:55:55;;;;;;;10.97;2.90;;;;;;;7.17;100.00;99908.19;4447063;27;20083;31
2022/05/09 02:58:22;;;;;;;4.05;2.78;;;;;;;7.26;100.00;99911.53;4487746;27;20092;-78
2022/05/09 03:00:50;;;;;;;4.47;2.20;;;;;;;7.09;100.00;99890.47;4484649;27;20075;31
2022/05/09 03:06:02;;;;;;;5.68;2.78;;;;;;;7.14;100.00;99922.00;4387348;32;20083;-77
2022/05/09 03:08:29;;;;;;;4.75;2.12;;;;;;;6.93;100.00;99884.72;4375857;32;20107;-77
2022/05/09 03:10:56;;;;;;;6.93;2.65;;;;;;;6.68;100.00;99853.19;4375484;32;20035;-78
2022/05/09 03:13:24;;;;;;;7.60;3.83;;;;;;;6.88;100.00;99888.81;4375419;32;20081;-77
2022/05/09 03:15:51;;;;;;;9.32;2.55;;;;;;;7.13;100.00;99923.03;4375784;32;20466;-78
2022/05/09 03:18:22;;;;;;;5.12;2.83;;;;;;;7.18;100.00;99935.81;4363230;32;20394;-78
2022/05/09 03:20:49;;;;;;;6.25;3.17;;;;;;;7.08;100.00;99912.13;4362290;32;20045;-79
2022/05/09 03:23:15;;;;;;;7.15;3.17;;;;;;;7.19;100.00;99942.81;4362252;32;20073;-79
2022/05/09 03:25:42;;;;;;;11.43;3.28;;;;;;;7.15;100.00;99936.22;4376493;32;20047;-79
2022/05/09 03:28:12;;;;;;;7.12;2.37;;;;;;;7.21;100.00;99940.75;4374890;32;20376;-80
2022/05/09 03:30:46;;;;;;;6.10;2.85;;;;;;;6.99;100.00;99907.97;4375738;32;20020;-79
2022/05/09 03:33:14;;;;;;;3.62;2.62;;;;;;;7.12;100.00;99950.84;4375388;32;20400;-79
2022/05/09 03:35:41;;;;;;;4.32;3.08;;;;;;;7.08;100.00;99953.13;4358735;32;20485;-79
2022/05/09 03:38:07;;;;;;;3.50;2.33;;;;;;;7.04;100.00;99967.12;4361986;32;20035;-78
2022/05/09 03:40:34;;;;;;;3.83;2.75;;;;;;;7.05;100.00;99960.72;4375114;32;20048;-78
2022/05/09 03:43:01;;;;;;;7.53;2.55;;;;;;;6.79;100.00;99926.72;4375754;32;20035;-78
2022/05/09 03:45:28;;;;;;;13.57;3.12;;;;;;;6.93;100.00;99948.97;4374558;32;20031;-78
2022/05/09 03:47:55;;;;;;;4.35;2.53;;;;;;;7.12;100.00;99977.63;4374968;32;20035;-78
2022/05/09 03:50:22;;;;;;;9.20;3.58;;;;;;;7.09;100.00;99975.38;4361395;32;20114;-78
2022/05/09 03:52:48;;;;;;;8.07;3.03;;;;;;;7.07;100.00;99982.78;4374975;32;20035;-78
2022/05/09 03:55:16;;;;;;;6.53;3.20;;;;;;;7.01;100.00;99978.25;4362401;32;20446;-78
2022/05/09 03:57:51;;;;;;;13.77;5.65;;;;;;;7.05;100.00;99979.47;4375186;32;20069;-79
2022/05/09 04:00:22;;;;;;;5.90;2.90;;;;;;;7.33;100.00;99981.16;4376137;32;20038;-79
2022/05/09 04:02:48;;;;;;;4.85;2.95;;;;;;;7.38;100.00;99978.69;4374308;32;20069;-78
2022/05/09 04:05:17;;;;;;;5.50;2.92;;;;;;;7.02;100.00;99950.41;4375097;32;20047;-78
2022/05/09 04:07:46;;;;;;;4.87;2.67;;;;;;;7.01;100.00;99935.41;4361853;32;20057;-77
2022/05/09 04:10:15;;;;;;;5.85;3.40;;;;;;;7.16;100.00;99949.41;4374962;32;20492;-78
2022/05/09 04:12:42;;;;;;;9.45;3.25;;;;;;;7.38;100.00;99973.34;4374454;32;20044;-75
2022/05/09 04:18:33;;;;;;;6.00;2.95;;;;;;;7.42;100.00;99979.94;4374331;32;20023;-76
2022/05/09 04:21:00;;;;;;;8.80;2.87;;;;;;;7.52;100.00;99980.34;4376036;32;20059;-78
2022/05/09 04:23:26;;;;;;;5.95;3.20;;;;;;;7.39;100.00;99973.13;4375669;32;20044;-75
2022/05/09 04:29:24;;;;;;;9.30;3.53;;;;;;;7.56;100.00;99981.59;4374424;32;20065;-76
2022/05/09 04:31:51;;;;;;;6.68;3.28;;;;;;;7.34;100.00;99945.28;4375647;32;20035;-76
2022/05/09 04:34:18;;;;;;;7.12;3.05;;;;;;;7.32;100.00;99950.03;4375672;32;20031;-77
2022/05/09 04:36:44;;;;;;;5.00;2.80;;;;;;;7.56;100.00;100000.34;4375687;32;20062;-77
2022/05/09 04:39:11;;;;;;;12.98;3.67;;;;;;;7.41;100.00;99984.47;4374655;32;20034;-76
2022/05/09 04:41:37;;;;;;;5.20;2.78;;;;;;;7.59;100.00;99996.41;4375135;32;20036;-76
2022/05/09 04:44:05;;;;;;;8.32;3.40;;;;;;;7.64;100.00;100005.50;4374502;32;20066;-76
2022/05/09 04:46:33;;;;;;;4.22;2.85;;;;;;;7.60;100.00;99993.53;4377897;32;20036;-75
2022/05/09 04:48:59;;;;;;;3.08;2.50;;;;;;;7.54;100.00;99967.56;4376978;32;20372;-75
2022/05/09 04:51:26;;;;;;;4.15;3.03;;;;;;;7.67;100.00;100003.44;4378488;32;20066;-75
2022/05/09 04:53:53;;;;;;;12.35;3.20;;;;;;;7.53;100.00;99965.94;4378482;32;20052;-75
2022/05/09 04:56:19;;;;;;;4.18;3.22;;;;;;;7.56;100.00;99986.94;4377315;32;20122;-75
2022/05/09 04:58:46;;;;;;;6.20;2.67;;;;;;;7.70;100.00;99997.66;4364828;32;20031;-75
2022/05/09 05:01:13;;;;;;;8.40;3.47;;;;;;;7.56;100.00;99973.56;4377886;32;20056;-75
2022/05/09 05:03:39;;;;;;;5.47;2.25;;;;;;;7.90;100.00;100019.91;4378120;32;20043;-76
2022/05/09 05:06:06;;;;;;;3.75;2.58;;;;;;;7.47;100.00;99961.38;4378452;32;20012;-75
2022/05/09 05:08:34;;;;;;;9.75;2.60;;;;;;;7.80;100.00;100016.81;4376877;32;20081;-76
2022/05/09 05:11:01;;;;;;;8.48;2.67;;;;;;;7.79;100.00;100009.81;4378288;32;20100;-76
2022/05/09 05:13:27;;;;;;;10.00;3.25;;;;;;;7.80;100.00;100024.88;4378435;32;20114;-75
2022/05/09 05:15:55;;;;;;;8.07;3.60;;;;;;;7.93;100.00;100030.22;4378520;32;20396;-77
2022/05/09 05:18:25;;;;;;;8.85;3.37;;;;;;;8.03;100.00;100029.81;4377030;32;20043;-76
2022/05/09 05:20:52;;;;;;;10.75;3.10;;;;;;;8.11;100.00;100029.59;4378330;32;20414;-76
2022/05/09 05:23:20;;;;;;;8.40;3.55;;;;;;;8.12;100.00;100022.34;4364752;32;20039;-76
2022/05/09 05:25:47;;;;;;;6.72;3.08;;;;;;;8.40;100.00;100023.97;4378047;32;20031;-76
2022/05/09 05:28:14;;;;;;;4.90;2.33;;;;;;;8.19;100.00;99990.97;4378132;32;20028;-76
2022/05/09 05:30:42;;;;;;;3.03;2.70;;;;;;;8.59;100.00;100033.81;4377972;32;20370;-76
2022/05/09 05:33:08;;;;;;;5.72;2.95;;;;;;;8.68;100.00;100048.66;4377833;32;20027;-75
2022/05/09 05:35:35;;;;;;;3.42;2.25;;;;;;;8.66;100.00;100028.44;4377653;32;20035;-76
2022/05/09 05:38:01;;;;;;;19.42;3.03;;;;;;;8.73;100.00;100035.44;4377008;32;20038;-76
2022/05/09 05:40:28;;;;;;;3.75;2.50;;;;;;;8.95;100.00;100050.41;4377759;32;20061;-76
2022/05/09 05:42:54;;;;;;;12.60;3.03;;;;;;;9.05;100.00;100042.72;4377883;32;20040;-76
2022/05/09 05:45:22;;;;;;;4.78;2.50;;;;;;;9.25;100.00;100054.19;4376541;32;20082;-80
2022/05/09 05:47:50;;;;;;;11.77;2.87;;;;;;;9.01;100.00;99987.78;4376686;32;20409;-74
2022/05/09 05:50:21;;;;;;;16.02;2.95;;;;;;;9.37;100.00;100051.63;4376905;32;20393;-73
2022/05/09 05:52:48;;;;;;;12.80;2.70;;;;;;;9.50;100.00;100050.72;4376439;32;20028;-73
2022/05/09 05:55:14;;;;;;;5.35;2.25;;;;;;;9.40;100.00;100024.31;4377061;32;20039;-73
2022/05/09 05:57:42;;;;;;;9.00;2.35;;;;;;;9.71;100.00;100062.97;4375652;32;20513;-73
2022/05/09 06:00:21;;;;;;;4.43;2.35;;;;;;;9.81;100.00;100057.09;4377352;32;20043;-73
2022/05/09 06:02:47;;;;;;;10.60;2.75;;;;;;;9.79;100.00;100030.41;4377423;32;20463;-72
2022/05/09 06:05:16;;;;;;;4.47;2.30;;;;;;;9.99;100.00;100064.41;4360847;32;20403;-73
2022/05/09 06:07:43;;;;;;;5.93;2.15;;;;;;;9.93;100.00;100024.94;4361430;32;20039;-74
2022/05/09 06:10:12;;;;;;;2.83;2.20;;;;;;;9.78;100.00;100026.09;4362311;32;20036;-74
2022/05/09 06:12:45;;;;;;;2.05;1.80;;;;;;;10.13;100.00;100060.56;4362657;32;20091;-73
2022/05/09 06:15:25;;;;;;;2.40;1.87;;;;;;;10.22;100.00;100068.34;4362250;32;20151;-73
2022/05/09 06:17:52;;;;;;;6.30;2.03;;;;;;;10.42;100.00;100063.63;4362111;32;20069;-72
2022/05/09 06:20:19;;;;;;;2.17;1.98;;;;;;;10.34;100.00;100047.75;4361086;32;20070;-73
2022/05/09 06:22:46;;;;;;;8.00;2.45;;;;;;;10.49;100.00;100058.16;4363168;32;20036;-73
2022/05/09 06:25:17;;;;;;;5.78;2.47;;;;;;;10.47;100.00;100069.16;4361418;32;20040;-72
2022/05/09 06:27:46;;;;;;;5.03;2.55;;;;;;;10.71;100.00;100072.81;4361230;32;20066;-74
2022/05/09 06:30:15;;;;;;;4.15;2.37;;;;;;;10.56;100.00;100036.53;4361090;32;20065;-73
2022/05/09 06:32:41;;;;;;;5.37;2.25;;;;;;;10.83;100.00;100070.19;4360968;32;20044;-73
2022/05/09 06:35:11;;;;;;;10.73;2.80;;;;;;;10.67;100.00;100039.31;4361960;32;20078;-72
2022/05/09 06:37:39;;;;;;;1.48;1.37;;;;;;;11.03;100.00;100074.50;4362427;32;20065;-73
2022/05/09 06:40:07;;;;;;;5.93;1.92;;;;;;;10.86;100.00;100031.19;4361968;32;20040;-73
2022/05/09 06:42:35;;;;;;;8.88;2.45;;;;;;;10.96;100.00;100041.44;4362000;32;20353;-72
2022/05/09 06:45:02;;;;;;;4.82;2.45;;;;;;;11.14;100.00;100071.03;4361804;32;20073;-73
2022/05/09 06:47:29;;;;;;;9.70;2.05;;;;;;;11.03;100.00;100036.78;4361872;32;20070;-72
2022/05/09 06:50:02;;;;;;;4.57;2.62;;;;;;;11.23;100.00;100080.47;4362037;32;20036;-73
2022/05/09 06:52:29;;;;;;;8.88;2.40;;;;;;;11.32;100.00;100072.06;4361826;32;20020;-73
2022/05/09 06:54:55;;;;;;;6.95;2.40;;;;;;;11.40;100.00;100079.81;4359686;32;20044;-72
2022/05/09 06:57:22;;;;;;;4.45;2.70;;;;;;;11.58;100.00;100078.94;4360672;32;20047;-73
2022/05/09 06:59:55;;;;;;;5.80;2.10;;;;;;;11.68;100.00;100081.06;4360498;32;20031;-73
2022/05/09 07:02:22;;;;;;;4.07;2.12;;;;;;;11.76;100.00;100069.94;4361583;32;20040;-72
2022/05/09 07:04:49;;;;;;;8.43;2.50;;;;;;;11.58;100.00;100039.31;4358684;32;20044;-73
2022/05/09 07:07:15;;;;;;;6.50;2.60;;;;;;;11.84;100.00;100057.97;4360034;32;20061;-73
2022/05/09 07:09:41;;;;;;;4.97;1.87;;;;;;;12.08;100.00;100085.88;4360447;32;20053;-74
2022/05/09 07:12:08;;;;;;;4.80;2.35;;;;;;;11.99;100.00;100083.50;4359400;32;20061;-72
2022/05/09 07:14:37;;;;;;;4.03;2.05;;;;;;;12.13;100.00;100088.69;4361748;32;20350;-74
2022/05/09 07:17:05;;;;;;;2.85;2.15;;;;;;;12.18;100.00;100088.78;4361250;32;20035;-74
2022/05/09 07:19:31;;;;;;;4.35;1.87;;;;;;;12.21;100.00;100080.22;4361587;32;20079;-73
2022/05/09 07:21:58;;;;;;;3.30;2.05;;;;;;;12.22;100.00;100099.94;4360276;32;20039;-73
2022/05/09 07:24:24;;;;;;;7.72;1.95;;;;;;;12.30;100.00;100095.03;4358901;32;20040;-73
2022/05/09 07:26:51;;;;;;;5.12;2.30;;;;;;;12.17;100.00;100095.25;4361211;32;20105;-72
2022/05/09 07:29:17;;;;;;;4.43;2.25;;;;;;;12.21;100.00;100096.44;4358947;32;20040;-73
2022/05/09 07:31:44;;;;;;;5.40;1.87;;;;;;;12.03;100.00;100073.06;4361248;32;20035;-74
2022/05/09 07:34:11;;;;;;;3.10;1.80;;;;;;;12.32;100.00;100098.31;4361096;32;20113;-73
2022/05/09 07:39:55;;;;;;;5.07;1.75;;;;;;;12.66;100.00;100103.91;4359327;32;20073;-74
2022/05/09 07:42:22;;;;;;;2.85;1.77;;;;;;;12.65;100.00;100102.28;4359230;32;20040;-73
2022/05/09 07:44:48;;;;;;;4.55;2.00;;;;;;;12.59;100.00;100097.81;4361013;32;20061;-73
2022/05/09 07:47:15;;;;;;;4.72;2.60;;;;;;;12.72;100.00;100094.84;4361027;32;20035;-71
2022/05/09 07:49:43;;;;;;;3.47;1.80;;;;;;;12.78;100.00;100073.34;4360604;32;20052;-73
2022/05/09 07:52:11;;;;;;;5.25;2.45;;;;;;;13.01;100.00;100099.50;4360194;32;20036;-74
2022/05/09 07:54:38;;;;;;;3.55;2.12;;;;;;;13.05;100.00;100084.44;4360011;32;20162;-74
2022/05/09 07:57:05;;;;;;;3.83;1.85;;;;;;;13.13;100.00;100104.87;4359854;32;20047;-73
2022/05/09 07:59:31;;;;;;;2.85;2.17;;;;;;;12.82;100.00;100096.12;4359971;32;20079;-75
2022/05/09 08:01:57;;;;;;;2.75;1.75;;;;;;;12.66;100.00;100071.50;4359926;32;20069;-74
2022/05/09 08:04:30;;;;;;;3.97;2.00;;;;;;;13.00;100.00;100098.69;4366264;32;20394;-73
2022/05/09 08:06:57;;;;;;;6.03;2.15;;;;;;;12.85;100.00;100101.06;4375748;32;20032;-73
2022/05/09 08:09:23;;;;;;;6.20;2.03;;;;;;;12.75;100.00;100079.22;4375572;32;20046;-73
2022/05/09 08:12:00;;;;;;;9.02;1.98;;;;;;;12.95;100.00;100105.88;4375695;32;20069;-73
2022/05/09 08:14:28;;;;;;;4.60;2.00;;;;;;;13.14;100.00;100109.22;4375866;32;20023;-72
2022/05/09 08:16:54;;;;;;;4.47;1.65;;;;;;;13.15;100.00;100111.69;4362324;32;20065;-74
2022/05/09 08:19:21;;;;;;;4.70;1.73;;;;;;;13.23;100.00;100102.38;4375258;32;20456;-74
2022/05/09 08:21:50;;;;;;;2.45;1.90;;;;;;;13.16;100.00;100071.94;4375712;32;20404;-74
2022/05/09 08:24:17;;;;;;;4.12;2.50;;;;;;;13.35;100.00;100097.75;4375235;32;20065;-74
2022/05/09 08:26:44;;;;;;;5.45;2.20;;;;;;;13.53;100.00;100106.72;4362080;32;20028;-74
2022/05/09 08:29:11;;;;;;;4.50;2.00;;;;;;;13.63;100.00;100106.94;4360011;32;20124;-74
2022/05/09 08:31:37;;;;;;;1.85;1.75;;;;;;;13.23;100.00;100075.34;4375597;32;20044;-74
2022/05/09 08:34:03;;;;;;;12.13;1.60;;;;;;;13.09;100.00;100081.00;4362032;32;20035;-74
2022/05/09 08:36:48;;;;;;;5.50;2.12;;;;;;;13.44;100.00;100109.00;4374252;32;20034;-74
2022/05/09 08:39:15;;;;;;;3.37;1.90;;;;;;;13.41;100.00;100104.91;4375507;32;20418;-74
2022/05/09 08:41:55;;;;;;;7.72;2.42;;;;;;;13.62;100.00;100116.94;4361029;32;20053;-74
2022/05/09 08:44:54;;;;;;;7.32;1.90;;;;;;;13.73;100.00;100115.22;4362901;32;20106;-73
2022/05/09 08:47:30;;;;;;;2.92;1.80;;;;;;;13.85;100.00;100114.31;4371133;32;20197;-73
2022/05/09 08:50:28;;;;;;;2.97;1.73;;;;;;;13.82;100.00;100121.06;4375592;32;20019;-74
2022/05/09 08:53:00;;;;;;;3.87;2.03;;;;;;;13.96;100.00;100110.72;4374695;32;20175;-74
2022/05/09 08:55:35;;;;;;;3.12;1.70;;;;;;;13.80;100.00;100078.00;4374864;32;20045;-74
2022/05/09 08:58:19;;;;;;;4.62;1.67;;;;;;;14.09;100.00;100115.81;4362800;32;20395;-74
2022/05/09 09:00:49;;;;;;;3.78;1.83;;;;;;;14.02;100.00;100114.34;4375573;32;20045;-75
2022/05/09 09:03:29;;;;;;;7.72;1.75;;;;;;;13.98;100.00;100073.41;4373918;32;20040;-73
2022/05/09 09:06:12;;;;;;;6.28;2.50;;;;;;;14.13;100.00;100083.66;4362747;32;20011;-74
2022/05/09 09:09:02;;;;;;;2.30;2.10;;;;;;;14.33;100.00;100115.66;4362246;32;20443;-73
2022/05/09 09:11:58;;;;;;;7.30;2.65;;;;;;;14.43;100.00;100083.28;4360451;32;20048;-74
2022/05/09 09:14:30;;;;;;;8.23;1.87;;;;;;;14.81;100.00;100116.09;4358863;32;20039;-73
2022/05/09 09:17:14;;;;;;;4.60;2.00;;;;;;;14.58;100.00;100085.38;4374788;32;20035;-73
2022/05/09 09:19:46;;;;;;;5.12;2.15;;;;;;;15.06;100.00;100121.00;4375446;32;20063;-74
2022/05/09 09:22:19;;;;;;;2.25;2.05;;;;;;;15.22;100.00;100117.41;4374635;32;20041;-73
2022/05/09 09:25:01;;;;;;;2.65;2.33;;;;;;;15.32;100.00;100116.69;4360846;32;20019;-73
2022/05/09 09:27:33;;;;;;;4.10;1.90;;;;;;;15.22;100.00;100120.12;4375644;32;20345;-74
2022/05/09 09:30:10;;;;;;;9.07;2.17;;;;;;;15.33;100.00;100112.88;4362172;32;20384;-73
2022/05/09 09:32:55;;;;;;;2.33;2.00;;;;;;;14.96;100.00;100124.41;4377740;32;20019;-73
2022/05/09 09:35:31;;;;;;;2.90;1.65;;;;;;;14.65;100.00;100128.59;4364438;32;20074;-74
2022/05/09 09:38:22;;;;;;;6.47;1.45;;;;;;;14.39;100.00;100127.38;4377758;32;20410;-74
2022/05/09 09:40:50;;;;;;;3.75;1.95;;;;;;;14.43;100.00;100121.22;4375235;32;20036;-74
2022/05/09 09:43:17;;;;;;;6.70;2.10;;;;;;;14.88;100.00;100117.50;4377538;32;20061;-73
2022/05/09 09:45:50;;;;;;;7.37;1.83;;;;;;;15.03;100.00;100073.50;4376797;32;20031;-74
2022/05/09 09:48:20;;;;;;;7.25;2.17;;;;;;;15.26;100.00;100090.56;4363832;32;20043;-73
2022/05/09 09:51:04;;;;;;;5.18;2.10;;;;;;;15.47;100.00;100118.75;4363328;32;20061;-73
2022/05/09 09:53:39;;;;;;;5.97;2.10;;;;;;;15.24;100.00;100088.13;4377586;32;20186;-74
2022/05/09 09:56:20;;;;;;;6.25;3.03;;;;;;;14.91;100.00;100096.41;4377408;32;20053;-73
2022/05/09 09:58:52;;;;;;;8.18;3.15;;;;;;;14.83;100.00;100120.16;4377435;32;20024;-74
2022/05/09 10:01:30;;;;;;;3.22;2.10;;;;;;;14.48;100.00;100094.19;4361493;32;20032;-74
2022/05/09 10:04:09;;;;;;;6.95;2.12;;;;;;;14.62;100.00;100120.97;4377489;32;20047;-72
2022/05/09 10:07:12;;;;;;;3.95;1.80;;;;;;;14.60;100.00;100114.97;4360152;32;20383;-73
2022/05/09 10:10:01;;;;;;;7.53;2.28;;;;;;;14.76;100.00;100113.28;4373484;32;20069;-72
2022/05/09 10:12:30;;;;;;;2.17;1.92;;;;;;;14.59;100.00;100075.38;4376419;32;20138;-74
2022/05/09 10:14:58;;;;;;;4.10;1.70;;;;;;;15.04;100.00;100109.59;4375606;32;20044;-73
2022/05/09 10:17:32;;;;;;;3.60;2.62;;;;;;;15.14;100.00;100077.16;4375286;32;20368;-73
2022/05/09 10:20:18;;;;;;;10.55;2.20;;;;;;;15.40;100.00;100082.84;4376856;32;20045;-73
2022/05/09 10:25:33;;;;;;;2.12;1.90;;;;;;;15.25;100.00;100068.06;4376051;32;20011;-73
2022/05/09 10:28:11;;;;;;;6.57;2.22;;;;;;;15.72;100.00;100111.94;4376195;32;20069;-74
2022/05/09 10:30:42;;;;;;;2.72;1.87;;;;;;;15.92;100.00;100114.03;4375549;32;20053;-73
2022/05/09 10:33:34;;;;;;;6.78;2.28;;;;;;;15.84;100.00;100090.88;4363477;32;20053;-74
2022/05/09 10:36:10;;;;;;;1.80;1.35;;;;;;;15.41;100.00;100108.91;4363249;32;20075;-72
2022/05/09 10:38:53;;;;;;;2.30;1.65;;;;;;;15.27;100.00;100108.50;4362474;32;20024;-74
2022/05/09 10:41:48;;;;;;;8.00;2.17;;;;;;;15.39;100.00;100101.03;4361810;32;20396;-74
2022/05/09 10:44:34;;;;;;;2.35;1.77;;;;;;;15.51;100.00;100106.31;4349824;32;20046;-74
2022/05/09 10:47:15;;;;;;;6.47;2.28;;;;;;;15.83;100.00;100066.69;4361991;32;20408;-73
2022/05/09 10:49:48;;;;;;;3.03;1.50;;;;;;;16.40;100.00;100081.50;4375190;32;20081;-73
2022/05/09 10:52:28;;;;;;;3.15;1.70;;;;;;;16.36;94.62;100040.47;4362114;32;20027;-73
2022/05/09 10:55:12;;;;;;;7.05;2.17;;;;;;;16.83;89.76;100088.56;4363357;32;20045;-73
2022/05/09 10:57:55;;;;;;;7.30;2.22;;;;;;;16.78;92.64;100084.97;4376503;32;20031;-73
2022/05/09 11:00:27;;;;;;;8.98;1.60;;;;;;;16.97;91.92;100097.06;4362213;32;20046;-73
2022/05/09 11:03:17;;;;;;;4.87;2.08;;;;;;;17.01;88.28;100087.28;4362977;32;20061;-73
2022/05/09 11:05:56;;;;;;;2.72;1.40;;;;;;;16.83;92.58;100090.44;4362588;32;20035;-73
2022/05/09 11:08:29;;;;;;;2.65;1.58;;;;;;;16.86;90.74;100087.22;4376735;32;20020;-73
2022/05/09 11:11:11;;;;;;;7.15;1.67;;;;;;;17.58;81.61;100084.69;4376042;32;20015;-73
2022/05/09 11:14:01;;;;;;;2.65;1.70;;;;;;;17.85;81.44;100057.19;4376219;32;20036;-75
2022/05/09 11:16:51;;;;;;;7.93;2.25;;;;;;;18.74;76.04;100088.69;4376090;32;20023;-73
2022/05/09 11:19:54;;;;;;;16.20;2.03;;;;;;;18.15;69.84;100040.03;4362617;32;20372;-72
2022/05/09 11:22:46;;;;;;;1.98;1.65;;;;;;;19.04;71.04;100066.75;4374440;32;20337;-74
2022/05/09 11:25:32;;;;;;;5.55;1.70;;;;;;;18.86;61.25;100065.47;4376972;32;20398;-74
2022/05/09 11:28:04;;;;;;;1.95;1.48;;;;;;;18.29;63.96;100073.00;4366790;32;20195;-72
2022/05/09 11:30:41;;;;;;;4.37;1.67;;;;;;;18.00;69.30;100080.09;4389308;32;20103;-72
2022/05/09 11:33:10;;;;;;;1.70;1.40;;;;;;;17.95;69.07;100072.78;4390794;32;20111;-72
2022/05/09 11:35:37;;;;;;;3.97;1.70;;;;;;;18.27;74.30;100036.22;4377460;32;20075;-73
2022/05/09 11:38:10;;;;;;;9.57;2.12;;;;;;;19.04;65.18;100057.75;4389874;32;20129;-72
2022/05/09 11:41:11;;;;;;;5.20;1.90;;;;;;;18.88;64.60;100033.28;4390659;32;20079;-72
2022/05/09 11:44:12;;;;;;;5.53;1.58;;;;;;;19.13;53.59;100058.81;4376101;32;20107;-73
2022/05/09 11:47:00;;;;;;;7.93;2.10;;;;;;;18.46;54.90;100026.34;4378604;32;20027;-72
2022/05/09 11:49:48;;;;;;;4.78;1.37;;;;;;;18.57;61.44;100061.75;4362076;32;20031;-73
2022/05/09 11:52:34;;;;;;;3.53;1.80;;;;;;;17.79;59.01;100031.88;4376031;32;20041;-73
2022/05/09 11:55:17;;;;;;;3.62;1.50;;;;;;;18.84;65.58;100059.50;4361930;32;20015;-74
2022/05/09 11:57:49;;;;;;;2.30;1.35;;;;;;;19.89;57.01;100048.44;4376017;32;20033;-73
2022/05/09 12:00:25;;;;;;;1.87;1.25;;;;;;;19.82;51.99;100047.97;4375954;32;20023;-73
2022/05/09 12:02:57;;;;;;;3.22;1.62;;;;;;;18.49;52.17;100016.75;4373946;32;20023;-73